sensor_id;sensor_type;location;lat;lon;timestamp;pressure;altitude;pressure_sealevel;temperature;humidity
84959;BME280;75256;48.062;11.662;2024-02-14T00:00:31;95748.63;;;0.63;83.79
84959;BME280;75256;48.062;11.662;2024-02-14T00:02:57;95747.06;;;0.58;83.73
84959;BME280;75256;48.062;11.662;2024-02-14T00:05:22;95743.88;;;0.49;84.22
84959;BME280;75256;48.062;11.662;2024-02-14T00:07:48;95746.16;;;0.47;84.30
84959;BME280;75256;48.062;11.662;2024-02-14T00:10:15;95749.25;;;0.49;84.21
84959;BME280;75256;48.062;11.662;2024-02-14T00:12:43;95747.78;;;0.55;84.61
84959;BME280;75256;48.062;11.662;2024-02-14T00:15:09;95751.28;;;0.59;84.49
84959;BME280;75256;48.062;11.662;2024-02-14T00:17:35;95750.84;;;0.57;84.31
84959;BME280;75256;48.062;11.662;2024-02-14T00:20:04;95750.53;;;0.62;83.45
84959;BME280;75256;48.062;11.662;2024-02-14T00:22:32;95751.41;;;0.73;83.69
84959;BME280;75256;48.062;11.662;2024-02-14T00:25:02;95751.53;;;0.87;83.25
84959;BME280;75256;48.062;11.662;2024-02-14T00:27:27;95749.53;;;0.81;83.70
84959;BME280;75256;48.062;11.662;2024-02-14T00:29:53;95751.47;;;0.80;83.36
84959;BME280;75256;48.062;11.662;2024-02-14T00:32:23;95755.25;;;0.76;83.94
84959;BME280;75256;48.062;11.662;2024-02-14T00:34:49;95750.34;;;0.85;83.15
84959;BME280;75256;48.062;11.662;2024-02-14T00:37:19;95757.25;;;0.86;83.54
84959;BME280;75256;48.062;11.662;2024-02-14T00:39:47;95755.00;;;0.91;83.02
84959;BME280;75256;48.062;11.662;2024-02-14T00:42:19;95752.78;;;1.00;83.43
84959;BME280;75256;48.062;11.662;2024-02-14T00:44:47;95753.31;;;1.20;81.75
84959;BME280;75256;48.062;11.662;2024-02-14T00:47:12;95754.09;;;1.20;81.70
84959;BME280;75256;48.062;11.662;2024-02-14T00:49:37;95756.00;;;1.23;81.16
84959;BME280;75256;48.062;11.662;2024-02-14T00:52:05;95750.69;;;1.31;81.56
84959;BME280;75256;48.062;11.662;2024-02-14T00:54:34;95757.25;;;1.37;81.29
84959;BME280;75256;48.062;11.662;2024-02-14T00:57:02;95750.75;;;1.38;80.73
84959;BME280;75256;48.062;11.662;2024-02-14T00:59:27;95762.28;;;1.42;80.76
84959;BME280;75256;48.062;11.662;2024-02-14T01:01:53;95760.34;;;1.39;80.95
84959;BME280;75256;48.062;11.662;2024-02-14T01:04:18;95755.38;;;1.44;81.19
84959;BME280;75256;48.062;11.662;2024-02-14T01:06:44;95760.00;;;1.47;80.89
84959;BME280;75256;48.062;11.662;2024-02-14T01:09:09;95763.84;;;1.43;80.52
84959;BME280;75256;48.062;11.662;2024-02-14T01:11:35;95769.22;;;1.50;80.52
84959;BME280;75256;48.062;11.662;2024-02-14T01:14:01;95762.69;;;1.47;80.29
84959;BME280;75256;48.062;11.662;2024-02-14T01:16:27;95771.16;;;1.49;80.65
84959;BME280;75256;48.062;11.662;2024-02-14T01:18:52;95763.50;;;1.55;81.63
84959;BME280;75256;48.062;11.662;2024-02-14T01:21:22;95765.00;;;1.49;80.32
84959;BME280;75256;48.062;11.662;2024-02-14T01:23:47;95773.84;;;1.46;80.49
84959;BME280;75256;48.062;11.662;2024-02-14T01:26:13;95768.44;;;1.42;81.31
84959;BME280;75256;48.062;11.662;2024-02-14T01:28:41;95770.78;;;1.47;81.60
84959;BME280;75256;48.062;11.662;2024-02-14T01:31:11;95783.03;;;1.45;81.02
84959;BME280;75256;48.062;11.662;2024-02-14T01:33:39;95775.75;;;1.45;80.99
84959;BME280;75256;48.062;11.662;2024-02-14T01:36:05;95777.31;;;1.46;81.30
84959;BME280;75256;48.062;11.662;2024-02-14T01:38:31;95770.41;;;1.52;80.71
84959;BME280;75256;48.062;11.662;2024-02-14T01:41:03;95769.22;;;1.50;81.42
84959;BME280;75256;48.062;11.662;2024-02-14T01:43:28;95766.91;;;1.48;81.21
84959;BME280;75256;48.062;11.662;2024-02-14T01:45:55;95773.13;;;1.56;80.44
84959;BME280;75256;48.062;11.662;2024-02-14T01:48:21;95779.31;;;1.67;80.59
84959;BME280;75256;48.062;11.662;2024-02-14T01:50:47;95780.13;;;1.71;80.68
84959;BME280;75256;48.062;11.662;2024-02-14T01:53:19;95779.72;;;1.69;80.92
84959;BME280;75256;48.062;11.662;2024-02-14T01:55:49;95777.81;;;1.66;79.71
84959;BME280;75256;48.062;11.662;2024-02-14T01:58:16;95772.81;;;1.68;80.20
84959;BME280;75256;48.062;11.662;2024-02-14T02:00:44;95772.47;;;1.73;79.68
84959;BME280;75256;48.062;11.662;2024-02-14T02:03:11;95777.09;;;1.76;79.92
84959;BME280;75256;48.062;11.662;2024-02-14T02:05:37;95770.97;;;1.82;79.26
84959;BME280;75256;48.062;11.662;2024-02-14T02:08:02;95770.19;;;1.85;78.55
84959;BME280;75256;48.062;11.662;2024-02-14T02:10:28;95771.75;;;1.86;78.49
84959;BME280;75256;48.062;11.662;2024-02-14T02:12:58;95773.31;;;1.91;78.36
84959;BME280;75256;48.062;11.662;2024-02-14T02:15:24;95771.78;;;1.93;78.74
84959;BME280;75256;48.062;11.662;2024-02-14T02:17:55;95773.75;;;2.07;77.89
84959;BME280;75256;48.062;11.662;2024-02-14T02:20:23;95771.06;;;2.07;77.37
84959;BME280;75256;48.062;11.662;2024-02-14T02:22:51;95768.78;;;2.09;77.84
84959;BME280;75256;48.062;11.662;2024-02-14T02:25:19;95772.63;;;2.11;76.88
84959;BME280;75256;48.062;11.662;2024-02-14T02:27:54;95780.31;;;2.06;77.19
84959;BME280;75256;48.062;11.662;2024-02-14T02:30:25;95773.75;;;2.07;77.41
84959;BME280;75256;48.062;11.662;2024-02-14T02:32:51;95779.53;;;2.09;78.33
84959;BME280;75256;48.062;11.662;2024-02-14T02:35:17;95775.28;;;2.04;78.04
84959;BME280;75256;48.062;11.662;2024-02-14T02:37:47;95784.16;;;2.05;77.37
84959;BME280;75256;48.062;11.662;2024-02-14T02:40:16;95783.69;;;1.92;78.38
84959;BME280;75256;48.062;11.662;2024-02-14T02:42:42;95783.66;;;1.85;78.22
84959;BME280;75256;48.062;11.662;2024-02-14T02:45:08;95773.69;;;1.86;78.23
84959;BME280;75256;48.062;11.662;2024-02-14T02:47:33;95772.50;;;1.80;78.17
84959;BME280;75256;48.062;11.662;2024-02-14T02:49:59;95778.59;;;1.73;78.54
84959;BME280;75256;48.062;11.662;2024-02-14T02:52:28;95783.63;;;1.82;78.41
84959;BME280;75256;48.062;11.662;2024-02-14T02:54:54;95781.34;;;1.84;79.19
84959;BME280;75256;48.062;11.662;2024-02-14T02:57:19;95781.34;;;1.84;78.74
84959;BME280;75256;48.062;11.662;2024-02-14T02:59:45;95788.66;;;1.87;77.93
84959;BME280;75256;48.062;11.662;2024-02-14T03:02:13;95784.00;;;1.80;78.45
84959;BME280;75256;48.062;11.662;2024-02-14T03:04:39;95777.91;;;1.87;78.19
84959;BME280;75256;48.062;11.662;2024-02-14T03:07:07;95776.38;;;1.86;77.91
84959;BME280;75256;48.062;11.662;2024-02-14T03:09:35;95776.41;;;1.93;77.51
84959;BME280;75256;48.062;11.662;2024-02-14T03:12:04;95777.16;;;1.90;77.17
84959;BME280;75256;48.062;11.662;2024-02-14T03:14:32;95784.84;;;1.91;78.66
84959;BME280;75256;48.062;11.662;2024-02-14T03:17:04;95789.88;;;1.93;77.76
84959;BME280;75256;48.062;11.662;2024-02-14T03:19:30;95789.47;;;1.91;78.03
84959;BME280;75256;48.062;11.662;2024-02-14T03:21:56;95795.59;;;1.84;77.45
84959;BME280;75256;48.062;11.662;2024-02-14T03:24:23;95786.31;;;1.82;77.63
84959;BME280;75256;48.062;11.662;2024-02-14T03:26:52;95785.56;;;1.81;77.42
84959;BME280;75256;48.062;11.662;2024-02-14T03:29:21;95782.88;;;1.81;77.54
84959;BME280;75256;48.062;11.662;2024-02-14T03:31:47;95781.75;;;1.86;77.18
84959;BME280;75256;48.062;11.662;2024-02-14T03:34:12;95781.75;;;1.89;77.42
84959;BME280;75256;48.062;11.662;2024-02-14T03:36:38;95786.34;;;1.85;76.67
84959;BME280;75256;48.062;11.662;2024-02-14T03:39:05;95775.19;;;1.76;77.66
84959;BME280;75256;48.062;11.662;2024-02-14T03:41:32;95783.94;;;1.70;77.92
84959;BME280;75256;48.062;11.662;2024-02-14T03:44:01;95781.66;;;1.72;77.44
84959;BME280;75256;48.062;11.662;2024-02-14T03:46:34;95777.53;;;1.85;77.28
84959;BME280;75256;48.062;11.662;2024-02-14T03:49:00;95779.41;;;1.81;76.95
84959;BME280;75256;48.062;11.662;2024-02-14T03:51:26;95773.19;;;1.66;77.88
84959;BME280;75256;48.062;11.662;2024-02-14T03:53:51;95779.31;;;1.63;77.21
84959;BME280;75256;48.062;11.662;2024-02-14T03:56:17;95773.88;;;1.49;77.38
84959;BME280;75256;48.062;11.662;2024-02-14T03:58:42;95780.69;;;1.40;78.26
84959;BME280;75256;48.062;11.662;2024-02-14T04:01:14;95778.34;;;1.31;77.87
84959;BME280;75256;48.062;11.662;2024-02-14T04:03:40;95792.91;;;1.26;79.61
84959;BME280;75256;48.062;11.662;2024-02-14T04:06:05;95790.66;;;1.32;78.54
84959;BME280;75256;48.062;11.662;2024-02-14T04:08:34;95799.81;;;1.24;79.46
84959;BME280;75256;48.062;11.662;2024-02-14T04:11:00;95794.03;;;1.22;80.23
84959;BME280;75256;48.062;11.662;2024-02-14T04:13:28;95798.19;;;1.16;79.36
84959;BME280;75256;48.062;11.662;2024-02-14T04:15:53;95792.78;;;1.09;80.45
84959;BME280;75256;48.062;11.662;2024-02-14T04:18:19;95780.50;;;1.11;79.93
84959;BME280;75256;48.062;11.662;2024-02-14T04:20:44;95785.00;;;0.97;80.03
84959;BME280;75256;48.062;11.662;2024-02-14T04:23:10;95775.75;;;0.94;80.06
84959;BME280;75256;48.062;11.662;2024-02-14T04:25:36;95771.06;;;0.84;80.75
84959;BME280;75256;48.062;11.662;2024-02-14T04:28:03;95772.53;;;0.75;81.16
84959;BME280;75256;48.062;11.662;2024-02-14T04:30:30;95776.78;;;0.79;79.62
84959;BME280;75256;48.062;11.662;2024-02-14T04:32:56;95769.38;;;0.69;79.67
84959;BME280;75256;48.062;11.662;2024-02-14T04:35:23;95777.03;;;0.64;80.17
84959;BME280;75256;48.062;11.662;2024-02-14T04:37:49;95780.84;;;0.63;81.43
84959;BME280;75256;48.062;11.662;2024-02-14T04:40:20;95777.09;;;0.74;80.64
84959;BME280;75256;48.062;11.662;2024-02-14T04:42:47;95780.66;;;0.82;81.08
84959;BME280;75256;48.062;11.662;2024-02-14T04:45:13;95778.44;;;0.94;80.79
84959;BME280;75256;48.062;11.662;2024-02-14T04:47:41;95774.34;;;1.07;80.32
84959;BME280;75256;48.062;11.662;2024-02-14T04:50:08;95769.41;;;1.16;80.26
84959;BME280;75256;48.062;11.662;2024-02-14T04:52:34;95775.66;;;1.35;80.05
84959;BME280;75256;48.062;11.662;2024-02-14T04:54:59;95772.63;;;1.40;79.43
84959;BME280;75256;48.062;11.662;2024-02-14T04:57:25;95775.69;;;1.38;80.46
84959;BME280;75256;48.062;11.662;2024-02-14T04:59:50;95781.91;;;1.46;79.76
84959;BME280;75256;48.062;11.662;2024-02-14T05:02:16;95781.94;;;1.49;80.00
84959;BME280;75256;48.062;11.662;2024-02-14T05:04:41;95785.38;;;1.50;80.79
84959;BME280;75256;48.062;11.662;2024-02-14T05:07:09;95778.84;;;1.47;80.07
84959;BME280;75256;48.062;11.662;2024-02-14T05:09:37;95768.47;;;1.49;79.91
84959;BME280;75256;48.062;11.662;2024-02-14T05:12:02;95766.94;;;1.52;79.46
84959;BME280;75256;48.062;11.662;2024-02-14T05:14:29;95776.94;;;1.55;79.58
84959;BME280;75256;48.062;11.662;2024-02-14T05:16:57;95772.31;;;1.48;79.80
84959;BME280;75256;48.062;11.662;2024-02-14T05:19:26;95770.69;;;1.37;79.51
84959;BME280;75256;48.062;11.662;2024-02-14T05:21:52;95778.69;;;1.22;80.32
84959;BME280;75256;48.062;11.662;2024-02-14T05:24:17;95767.47;;;1.13;81.23
84959;BME280;75256;48.062;11.662;2024-02-14T05:26:45;95773.19;;;1.08;81.20
84959;BME280;75256;48.062;11.662;2024-02-14T05:29:10;95777.41;;;1.09;81.30
84959;BME280;75256;48.062;11.662;2024-02-14T05:31:54;95766.69;;;1.13;80.61
84959;BME280;75256;48.062;11.662;2024-02-14T05:34:25;95764.34;;;1.08;80.52
84959;BME280;75256;48.062;11.662;2024-02-14T05:36:51;95760.84;;;1.00;80.88
84959;BME280;75256;48.062;11.662;2024-02-14T05:39:17;95768.13;;;1.00;81.20
84959;BME280;75256;48.062;11.662;2024-02-14T05:41:44;95768.13;;;1.00;81.00
84959;BME280;75256;48.062;11.662;2024-02-14T05:44:09;95779.69;;;1.04;80.15
84959;BME280;75256;48.062;11.662;2024-02-14T05:46:37;95772.00;;;1.06;80.91
84959;BME280;75256;48.062;11.662;2024-02-14T05:49:02;95779.06;;;1.24;79.95
84959;BME280;75256;48.062;11.662;2024-02-14T05:51:28;95771.41;;;1.30;80.49
84959;BME280;75256;48.062;11.662;2024-02-14T05:53:54;95776.50;;;1.42;80.58
84959;BME280;75256;48.062;11.662;2024-02-14T05:56:19;95780.00;;;1.50;80.35
84959;BME280;75256;48.062;11.662;2024-02-14T05:58:47;95785.38;;;1.50;79.03
84959;BME280;75256;48.062;11.662;2024-02-14T06:01:12;95786.97;;;1.54;79.47
84959;BME280;75256;48.062;11.662;2024-02-14T06:03:38;95788.88;;;1.54;79.13
84959;BME280;75256;48.062;11.662;2024-02-14T06:06:04;95791.59;;;1.61;78.82
84959;BME280;75256;48.062;11.662;2024-02-14T06:08:29;95805.06;;;1.64;80.14
84959;BME280;75256;48.062;11.662;2024-02-14T06:10:54;95800.84;;;1.67;80.07
84959;BME280;75256;48.062;11.662;2024-02-14T06:13:20;95804.69;;;1.66;80.01
84959;BME280;75256;48.062;11.662;2024-02-14T06:15:45;95801.59;;;1.64;80.57
84959;BME280;75256;48.062;11.662;2024-02-14T06:18:13;95800.13;;;1.73;80.23
84959;BME280;75256;48.062;11.662;2024-02-14T06:20:41;95798.59;;;1.76;78.23
84959;BME280;75256;48.062;11.662;2024-02-14T06:23:08;95799.00;;;1.74;79.06
84959;BME280;75256;48.062;11.662;2024-02-14T06:25:34;95809.78;;;1.78;79.22
84959;BME280;75256;48.062;11.662;2024-02-14T06:27:59;95806.31;;;1.81;78.74
84959;BME280;75256;48.062;11.662;2024-02-14T06:30:24;95805.97;;;1.86;79.65
84959;BME280;75256;48.062;11.662;2024-02-14T06:32:52;95812.16;;;1.90;78.07
84959;BME280;75256;48.062;11.662;2024-02-14T06:35:20;95812.16;;;1.97;77.85
84959;BME280;75256;48.062;11.662;2024-02-14T06:37:46;95821.81;;;2.01;78.30
84959;BME280;75256;48.062;11.662;2024-02-14T06:40:12;95832.56;;;1.98;77.41
84959;BME280;75256;48.062;11.662;2024-02-14T06:42:37;95825.69;;;2.07;77.17
84959;BME280;75256;48.062;11.662;2024-02-14T06:45:03;95826.09;;;2.13;76.22
84959;BME280;75256;48.062;11.662;2024-02-14T06:47:33;95819.97;;;2.16;77.01
84959;BME280;75256;48.062;11.662;2024-02-14T06:50:01;95821.47;;;2.13;76.98
84959;BME280;75256;48.062;11.662;2024-02-14T06:52:26;95816.47;;;2.12;75.67
84959;BME280;75256;48.062;11.662;2024-02-14T06:54:51;95812.63;;;2.13;75.67
84959;BME280;75256;48.062;11.662;2024-02-14T06:57:17;95822.28;;;2.17;75.17
84959;BME280;75256;48.062;11.662;2024-02-14T06:59:45;95820.38;;;2.25;75.45
84959;BME280;75256;48.062;11.662;2024-02-14T07:02:10;95825.78;;;2.28;76.07
84959;BME280;75256;48.062;11.662;2024-02-14T07:04:36;95825.03;;;2.35;75.83
84959;BME280;75256;48.062;11.662;2024-02-14T07:07:04;95828.13;;;2.44;74.92
84959;BME280;75256;48.062;11.662;2024-02-14T07:09:30;95823.94;;;2.50;73.56
84959;BME280;75256;48.062;11.662;2024-02-14T07:11:55;95826.28;;;2.62;74.89
84959;BME280;75256;48.062;11.662;2024-02-14T07:14:23;95835.56;;;2.72;73.73
84959;BME280;75256;48.062;11.662;2024-02-14T07:16:51;95839.81;;;2.80;73.80
84959;BME280;75256;48.062;11.662;2024-02-14T07:19:16;95839.03;;;2.83;74.03
84959;BME280;75256;48.062;11.662;2024-02-14T07:21:41;95848.69;;;2.87;74.51
84959;BME280;75256;48.062;11.662;2024-02-14T07:24:07;95844.84;;;2.92;73.85
84959;BME280;75256;48.062;11.662;2024-02-14T07:26:32;95847.53;;;2.95;72.45
84959;BME280;75256;48.062;11.662;2024-02-14T07:29:00;95850.63;;;3.01;72.10
84959;BME280;75256;48.062;11.662;2024-02-14T07:31:29;95854.88;;;3.05;73.38
84959;BME280;75256;48.062;11.662;2024-02-14T07:34:00;95857.59;;;3.16;73.63
84959;BME280;75256;48.062;11.662;2024-02-14T07:36:25;95862.59;;;3.24;72.35
84959;BME280;75256;48.062;11.662;2024-02-14T07:38:51;95866.84;;;3.32;71.46
84959;BME280;75256;48.062;11.662;2024-02-14T07:41:16;95874.19;;;3.42;71.09
84959;BME280;75256;48.062;11.662;2024-02-14T07:43:41;95872.25;;;3.46;70.76
84959;BME280;75256;48.062;11.662;2024-02-14T07:46:07;95879.19;;;3.47;69.83
84959;BME280;75256;48.062;11.662;2024-02-14T07:48:33;95866.09;;;3.49;70.41
84959;BME280;75256;48.062;11.662;2024-02-14T07:50:59;95872.25;;;3.53;70.02
84959;BME280;75256;48.062;11.662;2024-02-14T07:53:25;95873.03;;;3.57;69.63
84959;BME280;75256;48.062;11.662;2024-02-14T07:55:53;95857.59;;;3.68;68.79
84959;BME280;75256;48.062;11.662;2024-02-14T07:58:19;95872.63;;;3.87;67.63
84959;BME280;75256;48.062;11.662;2024-02-14T08:00:45;95869.13;;;4.01;66.94
84959;BME280;75256;48.062;11.662;2024-02-14T08:03:13;95869.91;;;4.08;66.97
84959;BME280;75256;48.062;11.662;2024-02-14T08:05:38;95865.22;;;4.16;65.49
84959;BME280;75256;48.062;11.662;2024-02-14T08:08:06;95867.94;;;4.23;65.55
84959;BME280;75256;48.062;11.662;2024-02-14T08:10:32;95879.47;;;4.27;65.18
84959;BME280;75256;48.062;11.662;2024-02-14T08:12:57;95866.75;;;4.31;64.68
84959;BME280;75256;48.062;11.662;2024-02-14T08:15:26;95876.75;;;4.37;65.98
84959;BME280;75256;48.062;11.662;2024-02-14T08:17:54;95871.72;;;4.43;65.09
84959;BME280;75256;48.062;11.662;2024-02-14T08:20:24;95879.41;;;4.51;64.67
84959;BME280;75256;48.062;11.662;2024-02-14T08:22:49;95873.59;;;4.60;64.78
84959;BME280;75256;48.062;11.662;2024-02-14T08:25:15;95878.19;;;4.66;63.33
84959;BME280;75256;48.062;11.662;2024-02-14T08:27:40;95879.31;;;4.76;64.04
84959;BME280;75256;48.062;11.662;2024-02-14T08:30:06;95887.00;;;4.84;63.70
84959;BME280;75256;48.062;11.662;2024-02-14T08:32:33;95876.94;;;4.92;62.71
84959;BME280;75256;48.062;11.662;2024-02-14T08:35:01;95877.22;;;5.04;62.02
84959;BME280;75256;48.062;11.662;2024-02-14T08:37:29;95880.69;;;5.12;62.26
84959;BME280;75256;48.062;11.662;2024-02-14T08:39:54;95872.88;;;5.21;61.83
84959;BME280;75256;48.062;11.662;2024-02-14T08:42:24;95883.25;;;5.30;60.73
84959;BME280;75256;48.062;11.662;2024-02-14T08:44:51;95876.63;;;5.38;61.52
84959;BME280;75256;48.062;11.662;2024-02-14T08:47:17;95881.63;;;5.43;61.46
84959;BME280;75256;48.062;11.662;2024-02-14T08:49:45;95870.75;;;5.50;60.72
84959;BME280;75256;48.062;11.662;2024-02-14T08:52:12;95873.00;;;5.58;61.27
84959;BME280;75256;48.062;11.662;2024-02-14T08:54:38;95874.13;;;5.64;63.29
84959;BME280;75256;48.062;11.662;2024-02-14T08:57:06;95872.19;;;5.65;64.67
84959;BME280;75256;48.062;11.662;2024-02-14T08:59:34;95885.28;;;5.70;64.82
84959;BME280;75256;48.062;11.662;2024-02-14T09:02:01;95876.75;;;5.75;62.05
84959;BME280;75256;48.062;11.662;2024-02-14T09:04:30;95879.03;;;5.80;63.92
84959;BME280;75256;48.062;11.662;2024-02-14T09:06:58;95878.59;;;5.88;61.93
84959;BME280;75256;48.062;11.662;2024-02-14T09:09:24;95881.19;;;6.02;62.73
84959;BME280;75256;48.062;11.662;2024-02-14T09:11:49;95871.75;;;6.17;61.50
84959;BME280;75256;48.062;11.662;2024-02-14T09:14:16;95876.16;;;6.42;61.70
84959;BME280;75256;48.062;11.662;2024-02-14T09:16:47;95875.09;;;6.66;61.77
84959;BME280;75256;48.062;11.662;2024-02-14T09:19:12;95883.03;;;6.83;58.60
84959;BME280;75256;48.062;11.662;2024-02-14T09:21:43;95882.13;;;6.93;57.96
84959;BME280;75256;48.062;11.662;2024-02-14T09:24:11;95884.91;;;7.16;57.72
84959;BME280;75256;48.062;11.662;2024-02-14T09:26:40;95875.59;;;7.44;59.22
84959;BME280;75256;48.062;11.662;2024-02-14T09:29:08;95875.38;;;7.58;56.18
84959;BME280;75256;48.062;11.662;2024-02-14T09:31:36;95868.06;;;7.78;58.90
84959;BME280;75256;48.062;11.662;2024-02-14T09:34:01;95867.19;;;8.08;55.04
84959;BME280;75256;48.062;11.662;2024-02-14T09:36:27;95873.97;;;8.42;53.46
84959;BME280;75256;48.062;11.662;2024-02-14T09:38:52;95862.06;;;8.56;53.05
84959;BME280;75256;48.062;11.662;2024-02-14T09:41:25;95864.16;;;8.68;53.29
84959;BME280;75256;48.062;11.662;2024-02-14T09:43:55;95875.25;;;8.77;51.06
84959;BME280;75256;48.062;11.662;2024-02-14T09:46:24;95874.69;;;8.86;52.08
84959;BME280;75256;48.062;11.662;2024-02-14T09:48:52;95866.03;;;8.91;51.77
84959;BME280;75256;48.062;11.662;2024-02-14T09:51:21;95877.69;;;8.91;52.18
84959;BME280;75256;48.062;11.662;2024-02-14T09:53:49;95877.47;;;9.02;51.34
84959;BME280;75256;48.062;11.662;2024-02-14T09:56:15;95872.84;;;9.18;51.40
84959;BME280;75256;48.062;11.662;2024-02-14T09:58:45;95871.34;;;9.33;51.78
84959;BME280;75256;48.062;11.662;2024-02-14T10:01:15;95875.00;;;9.43;50.22
84959;BME280;75256;48.062;11.662;2024-02-14T10:03:40;95874.59;;;9.44;51.62
84959;BME280;75256;48.062;11.662;2024-02-14T10:06:06;95870.47;;;9.56;49.94
84959;BME280;75256;48.062;11.662;2024-02-14T10:08:32;95870.84;;;9.54;50.25
84959;BME280;75256;48.062;11.662;2024-02-14T10:10:57;95877.94;;;9.52;51.55
84959;BME280;75256;48.062;11.662;2024-02-14T10:13:29;95872.84;;;9.54;50.80
84959;BME280;75256;48.062;11.662;2024-02-14T10:15:57;95867.63;;;9.43;50.82
84959;BME280;75256;48.062;11.662;2024-02-14T10:18:22;95870.25;;;9.47;50.73
84959;BME280;75256;48.062;11.662;2024-02-14T10:20:55;95868.06;;;9.58;51.56
84959;BME280;75256;48.062;11.662;2024-02-14T10:23:26;95869.47;;;9.46;51.48
84959;BME280;75256;48.062;11.662;2024-02-14T10:25:57;95864.88;;;9.27;53.29
84959;BME280;75256;48.062;11.662;2024-02-14T10:28:22;95859.38;;;9.11;53.38
84959;BME280;75256;48.062;11.662;2024-02-14T10:30:49;95855.56;;;9.25;52.09
84959;BME280;75256;48.062;11.662;2024-02-14T10:33:20;95856.78;;;9.24;51.75
84959;BME280;75256;48.062;11.662;2024-02-14T10:35:47;95845.03;;;9.27;51.83
84959;BME280;75256;48.062;11.662;2024-02-14T10:38:13;95840.44;;;9.40;52.18
84959;BME280;75256;48.062;11.662;2024-02-14T10:40:41;95839.88;;;9.48;51.52
84959;BME280;75256;48.062;11.662;2024-02-14T10:43:08;95833.59;;;9.67;50.73
84959;BME280;75256;48.062;11.662;2024-02-14T10:45:37;95843.19;;;9.72;51.28
84959;BME280;75256;48.062;11.662;2024-02-14T10:48:04;95849.00;;;9.74;50.80
84959;BME280;75256;48.062;11.662;2024-02-14T10:50:34;95842.78;;;9.89;51.88
84959;BME280;75256;48.062;11.662;2024-02-14T10:53:04;95843.28;;;10.00;50.69
84959;BME280;75256;48.062;11.662;2024-02-14T10:55:33;95848.97;;;10.22;49.80
84959;BME280;75256;48.062;11.662;2024-02-14T10:58:00;95847.59;;;10.30;50.71
84959;BME280;75256;48.062;11.662;2024-02-14T11:00:29;95846.63;;;10.37;49.90
84959;BME280;75256;48.062;11.662;2024-02-14T11:02:55;95850.28;;;10.46;50.04
84959;BME280;75256;48.062;11.662;2024-02-14T11:05:21;95843.19;;;10.49;50.32
84959;BME280;75256;48.062;11.662;2024-02-14T11:07:50;95839.31;;;10.62;50.47
84959;BME280;75256;48.062;11.662;2024-02-14T11:10:23;95840.53;;;10.74;50.91
84959;BME280;75256;48.062;11.662;2024-02-14T11:12:54;95843.56;;;10.92;50.40
84959;BME280;75256;48.062;11.662;2024-02-14T11:15:23;95851.03;;;11.16;48.91
84959;BME280;75256;48.062;11.662;2024-02-14T11:18:04;95844.38;;;11.30;49.13
84959;BME280;75256;48.062;11.662;2024-02-14T11:20:36;95842.84;;;11.29;49.52
84959;BME280;75256;48.062;11.662;2024-02-14T11:23:04;95837.50;;;11.51;48.19
84959;BME280;75256;48.062;11.662;2024-02-14T11:25:34;95839.44;;;11.63;48.76
84959;BME280;75256;48.062;11.662;2024-02-14T11:28:15;95828.97;;;11.74;48.78
84959;BME280;75256;48.062;11.662;2024-02-14T11:30:42;95832.00;;;11.88;47.84
84959;BME280;75256;48.062;11.662;2024-02-14T11:33:28;95820.69;;;12.11;49.05
84959;BME280;75256;48.062;11.662;2024-02-14T11:35:54;95822.78;;;12.41;48.71
84959;BME280;75256;48.062;11.662;2024-02-14T11:38:21;95809.69;;;12.58;48.26
84959;BME280;75256;48.062;11.662;2024-02-14T11:40:53;95807.78;;;12.68;47.98
84959;BME280;75256;48.062;11.662;2024-02-14T11:43:20;95810.88;;;13.00;47.12
84959;BME280;75256;48.062;11.662;2024-02-14T11:45:46;95810.44;;;13.23;46.68
84959;BME280;75256;48.062;11.662;2024-02-14T11:48:15;95810.81;;;13.13;46.54
84959;BME280;75256;48.062;11.662;2024-02-14T11:50:49;95808.16;;;13.00;48.20
84959;BME280;75256;48.062;11.662;2024-02-14T11:53:20;95808.84;;;12.92;47.85
84959;BME280;75256;48.062;11.662;2024-02-14T11:55:46;95805.53;;;12.75;51.36
84959;BME280;75256;48.062;11.662;2024-02-14T11:58:16;95807.78;;;12.68;49.15
84959;BME280;75256;48.062;11.662;2024-02-14T12:00:46;95796.03;;;12.45;52.46
84959;BME280;75256;48.062;11.662;2024-02-14T12:03:25;95800.56;;;12.39;51.35
84959;BME280;75256;48.062;11.662;2024-02-14T12:05:55;95794.53;;;12.44;50.71
84959;BME280;75256;48.062;11.662;2024-02-14T12:08:24;95787.13;;;12.54;50.25
84959;BME280;75256;48.062;11.662;2024-02-14T12:10:50;95790.06;;;12.60;50.26
84959;BME280;75256;48.062;11.662;2024-02-14T12:13:20;95798.34;;;12.69;50.76
84959;BME280;75256;48.062;11.662;2024-02-14T12:15:47;95788.16;;;12.69;49.89
84959;BME280;75256;48.062;11.662;2024-02-14T12:18:15;95795.88;;;12.83;49.01
84959;BME280;75256;48.062;11.662;2024-02-14T12:20:41;95797.75;;;12.95;49.12
84959;BME280;75256;48.062;11.662;2024-02-14T12:23:17;95794.63;;;12.84;49.78
84959;BME280;75256;48.062;11.662;2024-02-14T12:25:46;95805.91;;;12.86;49.01
84959;BME280;75256;48.062;11.662;2024-02-14T12:28:18;95802.66;;;13.00;49.64
84959;BME280;75256;48.062;11.662;2024-02-14T12:30:46;95803.03;;;13.11;50.03
84959;BME280;75256;48.062;11.662;2024-02-14T12:33:14;95800.81;;;13.67;48.55
84959;BME280;75256;48.062;11.662;2024-02-14T12:35:48;95809.09;;;13.77;48.77
84959;BME280;75256;48.062;11.662;2024-02-14T12:38:15;95807.81;;;13.59;47.01
84959;BME280;75256;48.062;11.662;2024-02-14T12:40:43;95798.91;;;13.37;48.25
84959;BME280;75256;48.062;11.662;2024-02-14T12:43:14;95806.19;;;13.31;46.58
84959;BME280;75256;48.062;11.662;2024-02-14T12:45:40;95804.81;;;13.36;48.01
84959;BME280;75256;48.062;11.662;2024-02-14T12:48:07;95802.94;;;13.54;45.11
84959;BME280;75256;48.062;11.662;2024-02-14T12:50:39;95802.13;;;13.45;45.76
84959;BME280;75256;48.062;11.662;2024-02-14T12:53:05;95801.16;;;13.69;44.72
84959;BME280;75256;48.062;11.662;2024-02-14T12:55:30;95797.13;;;14.10;43.69
84959;BME280;75256;48.062;11.662;2024-02-14T12:58:00;95797.13;;;14.10;43.02